KIRK/IRK METAR and TAF weather

Enter ICAO airport designator
Station Type Date Time Source
KIRK METAR 2019/10/14 04:55 UTC NOAA

KIRK 140455Z AUTO 34005KT 10SM CLR 05/00 A3002 RMK AO2 SLP173 T00500000 $


Station Type Date Time Source
KIRK Decoded METAR 2019/10/14 04:55 UTC NOAA

KIRKSVILLE REGIONAL AIRPORT , MO, United States (KIRK) 40-06N 092-33W 293M
Oct 14, 2019 - 12:55 AM EDT / 2019.10.14 0455 UTC
Wind: from the NNW (340 degrees) at 6 MPH (5 KT):0
Visibility: 10 mile(s):0
Sky conditions: clear
Temperature: 41.0 F (5.0 C)
Dew Point: 32.0 F (0.0 C)
Relative Humidity: 70%
Pressure (altimeter): 30.02 in. Hg (1016 hPa)
ob: KIRK 140455Z AUTO 34005KT 10SM CLR 05/00 A3002 RMK AO2 SLP173 T00500000
cycle: 5

Station Type Date Time Source
KIRK TAF UTC NOAA

Error!

Example: see airport list